Terminal Aerodrome Forecast
Issued by NWS

Home | Current Version | Previous Version | Text Only | Print | Product List | Glossary On
Versions: 1 2 3 4 5 6 7 8 9 10 11 12 13 14 15 16 17 18 19 20 21 22 23 24 25 26 27 28 29 30 31 32 33 34 35 36 37 38 39 40 41
000
FTAK31 PANC 281722
TAFADL
TAF
PADL 281722Z 2818/2918 VRB04KT P6SM BKN040 OVC070
     FM282100 16008KT P6SM -RA SCT020 BKN040 OVC060
     FM290100 18009KT P6SM -RA VCTS BKN020CB OVC040
     FM290700 22005KT P6SM VCSH SCT020 BKN040
     FM291200 13004KT P6SM VCFG SCT008 BKN020=

USA.gov is the U.S. government's official web portal to all federal, state and local government web resources and services.